createdAt,value
2023-05-17T00:06:57.132Z,7.20
2023-05-17T00:16:58.673Z,9.17
2023-05-17T00:27:00.243Z,10.15
2023-05-17T00:37:01.784Z,11.20
2023-05-17T00:47:03.344Z,8.13
2023-05-17T00:57:05.963Z,9.98
2023-05-17T01:07:07.530Z,10.10
2023-05-17T01:17:17.101Z,13.47
2023-05-17T01:27:20.816Z,12.53
2023-05-17T01:37:22.305Z,10.27
2023-05-17T01:47:52.597Z,9.47
2023-05-17T01:57:56.118Z,9.80
2023-05-17T02:07:57.899Z,13.85
2023-05-17T02:17:59.592Z,10.27
2023-05-17T02:28:01.029Z,13.50
2023-05-17T02:38:02.594Z,13.65
2023-05-17T02:48:04.333Z,13.18
2023-05-17T02:58:05.822Z,12.43
2023-05-17T03:08:07.311Z,14.43
2023-05-17T03:18:08.885Z,14.38
2023-05-17T03:28:10.560Z,14.13
2023-05-17T03:38:12.062Z,15.13
2023-05-17T03:48:13.635Z,17.42
2023-05-17T03:58:15.542Z,12.23
2023-05-17T04:08:17.012Z,17.07
2023-05-17T04:18:18.510Z,17.13
2023-05-17T04:28:22.002Z,14.82
2023-05-17T04:38:26.337Z,18.73
2023-05-17T04:48:31.044Z,15.23
2023-05-17T04:58:32.746Z,14.75
2023-05-17T05:08:34.613Z,14.60
2023-05-17T05:18:36.472Z,15.80
2023-05-17T05:28:38.243Z,19.52
2023-05-17T05:38:39.657Z,15.87
2023-05-17T05:48:42.133Z,14.33
2023-05-17T05:58:43.603Z,13.00
2023-05-17T06:08:47.146Z,10.25
2023-05-17T06:18:51.108Z,11.20
2023-05-17T06:28:52.903Z,9.30
2023-05-17T06:38:54.313Z,9.85
2023-05-17T06:48:56.242Z,9.53
2023-05-17T06:58:59.546Z,7.63
2023-05-17T07:09:01.028Z,9.40
2023-05-17T07:19:02.892Z,6.73
2023-05-17T07:29:04.547Z,5.83
2023-05-17T07:39:06.208Z,10.43
2023-05-17T07:49:07.894Z,9.52
2023-05-17T07:59:09.449Z,9.67
2023-05-17T08:09:11.132Z,10.37
2023-05-17T08:19:14.998Z,17.15
2023-05-17T08:29:17.145Z,6.10
2023-05-17T08:39:18.780Z,6.73
2023-05-17T08:49:22.723Z,10.85
2023-05-17T08:59:26.685Z,7.93
2023-05-17T09:09:28.680Z,6.60
2023-05-17T09:19:30.452Z,7.38
2023-05-17T09:29:32.569Z,5.22
2023-05-17T09:39:34.134Z,6.17
2023-05-17T09:49:36.455Z,4.33
2023-05-17T09:59:38.726Z,5.82
2023-05-17T10:09:40.972Z,8.53
2023-05-17T10:19:43.688Z,4.40
2023-05-17T10:29:49.933Z,6.90
2023-05-17T10:39:53.240Z,4.67
2023-05-17T10:49:55.874Z,8.77
2023-05-17T11:00:06.301Z,6.88
2023-05-17T11:10:12.102Z,6.88
2023-05-17T11:20:17.371Z,7.60
2023-05-17T11:30:24.628Z,7.83
2023-05-17T11:40:28.104Z,5.78
2023-05-17T11:50:30.066Z,6.83
2023-05-17T12:00:31.986Z,7.90
2023-05-17T12:10:34.912Z,4.85
2023-05-17T12:20:39.010Z,8.37
2023-05-17T12:30:40.714Z,6.27
2023-05-17T12:40:43.527Z,4.93
2023-05-17T12:50:46.274Z,5.63
2023-05-17T13:00:57.740Z,7.97
2023-05-17T13:11:13.553Z,6.27
2023-05-17T13:21:15.130Z,7.88
2023-05-17T13:31:16.609Z,7.63
2023-05-17T13:41:18.263Z,4.57
2023-05-17T13:51:19.751Z,10.30
2023-05-17T14:01:21.237Z,5.97
2023-05-17T14:11:22.852Z,6.43
2023-05-17T14:21:24.383Z,13.15
2023-05-17T14:31:28.352Z,8.88
2023-05-17T14:41:30.042Z,7.03
2023-05-17T14:51:31.659Z,7.93
2023-05-17T15:01:33.413Z,8.00
2023-05-17T15:11:34.890Z,7.67
2023-05-17T15:21:36.532Z,6.20
2023-05-17T15:31:38.288Z,8.63
2023-05-17T15:41:40.539Z,7.10
2023-05-17T15:51:42.090Z,7.50
2023-05-17T16:01:46.240Z,6.95
2023-05-17T16:11:47.740Z,8.10
2023-05-17T16:21:50.897Z,6.97
2023-05-17T16:31:52.899Z,5.23
2023-05-17T16:41:55.070Z,6.13
2023-05-17T16:51:56.661Z,9.13
2023-05-17T17:01:58.495Z,6.33
2023-05-17T17:12:02.753Z,6.60
2023-05-17T17:22:09.865Z,5.97
2023-05-17T17:32:11.594Z,7.80
2023-05-17T17:42:13.187Z,7.75
2023-05-17T17:52:14.765Z,8.57
2023-05-17T18:02:16.263Z,5.13
2023-05-17T18:12:18.258Z,5.00
2023-05-17T18:31:18.295Z,7.27
2023-05-17T18:41:19.826Z,9.48
2023-05-17T18:51:21.777Z,5.97
2023-05-17T19:01:23.608Z,6.30
2023-05-17T19:11:26.487Z,6.20
2023-05-17T19:21:28.120Z,7.38
2023-05-17T19:31:29.565Z,5.20
2023-05-17T19:41:31.182Z,6.77
2023-05-17T19:51:54.082Z,5.38
2023-05-17T20:02:16.141Z,9.97
2023-05-17T20:12:38.827Z,6.27
2023-05-17T20:22:42.449Z,5.88
2023-05-17T20:32:44.045Z,8.23
2023-05-17T20:43:07.716Z,7.67
2023-05-17T20:53:30.376Z,8.85
2023-05-17T21:03:52.367Z,6.72
2023-05-17T21:14:14.258Z,7.40
2023-05-17T21:24:36.134Z,6.47
2023-05-17T21:34:59.519Z,10.73
2023-05-17T21:45:21.479Z,9.10
2023-05-17T22:06:07.981Z,6.82
2023-05-17T22:16:33.007Z,6.13
2023-05-17T22:26:55.096Z,7.90
2023-05-17T22:37:17.531Z,6.05
2023-05-17T22:47:39.485Z,7.18
2023-05-17T22:58:01.278Z,7.00
2023-05-17T23:08:23.404Z,8.27
2023-05-17T23:18:27.393Z,9.68
2023-05-17T23:28:50.293Z,6.53
2023-05-17T23:38:51.791Z,7.03
2023-05-17T23:48:54.291Z,7.90
2023-05-17T23:59:16.012Z,7.50
